sensor_id;sensor_type;location;lat;lon;timestamp;pressure;altitude;pressure_sealevel;temperature;humidity
58018;BME280;43810;50.860;19.226;2023-05-16T00:01:44;97968.78;;;9.57;93.59
58018;BME280;43810;50.860;19.226;2023-05-16T00:04:09;97975.66;;;9.58;93.42
58018;BME280;43810;50.860;19.226;2023-05-16T00:06:35;97977.19;;;9.59;93.68
58018;BME280;43810;50.860;19.226;2023-05-16T00:09:01;97980.47;;;9.68;93.65
58018;BME280;43810;50.860;19.226;2023-05-16T00:11:27;97973.22;;;9.65;93.42
58018;BME280;43810;50.860;19.226;2023-05-16T00:13:53;97978.50;;;9.65;93.38
58018;BME280;43810;50.860;19.226;2023-05-16T00:16:19;97992.44;;;9.62;93.09
58018;BME280;43810;50.860;19.226;2023-05-16T00:18:46;97990.34;;;9.55;93.25
58018;BME280;43810;50.860;19.226;2023-05-16T00:21:13;97993.69;;;9.52;92.93
58018;BME280;43810;50.860;19.226;2023-05-16T00:23:38;97990.72;;;9.42;92.74
58018;BME280;43810;50.860;19.226;2023-05-16T00:26:04;97995.56;;;9.40;92.88
58018;BME280;43810;50.860;19.226;2023-05-16T00:28:30;97998.78;;;9.33;92.82
58018;BME280;43810;50.860;19.226;2023-05-16T00:30:56;97997.56;;;9.30;93.44
58018;BME280;43810;50.860;19.226;2023-05-16T00:33:21;98004.63;;;9.26;93.25
58018;BME280;43810;50.860;19.226;2023-05-16T00:35:47;98009.34;;;9.21;93.34
58018;BME280;43810;50.860;19.226;2023-05-16T00:38:13;98003.19;;;9.17;93.65
58018;BME280;43810;50.860;19.226;2023-05-16T00:40:39;97999.66;;;9.25;93.79
58018;BME280;43810;50.860;19.226;2023-05-16T00:43:05;98006.69;;;9.21;93.84
58018;BME280;43810;50.860;19.226;2023-05-16T00:45:31;98003.28;;;9.20;94.03
58018;BME280;43810;50.860;19.226;2023-05-16T00:47:56;98001.00;;;9.19;93.81
58018;BME280;43810;50.860;19.226;2023-05-16T00:50:22;98008.69;;;9.24;93.78
58018;BME280;43810;50.860;19.226;2023-05-16T00:52:48;97996.88;;;9.21;93.93
58018;BME280;43810;50.860;19.226;2023-05-16T00:55:14;98001.84;;;9.23;93.89
58018;BME280;43810;50.860;19.226;2023-05-16T00:57:40;97998.44;;;9.22;93.64
58018;BME280;43810;50.860;19.226;2023-05-16T01:00:07;98003.63;;;9.19;93.75
58018;BME280;43810;50.860;19.226;2023-05-16T01:02:35;97996.00;;;9.17;93.34
58018;BME280;43810;50.860;19.226;2023-05-16T01:05:02;97994.03;;;9.14;93.75
58018;BME280;43810;50.860;19.226;2023-05-16T01:07:34;97990.16;;;9.12;93.98
58018;BME280;43810;50.860;19.226;2023-05-16T01:10:02;97991.25;;;9.11;94.00
58018;BME280;43810;50.860;19.226;2023-05-16T01:15:25;97992.91;;;9.03;94.03
58018;BME280;43810;50.860;19.226;2023-05-16T01:18:04;97994.47;;;9.04;93.92
58018;BME280;43810;50.860;19.226;2023-05-16T01:20:54;97997.56;;;9.06;94.00
58018;BME280;43810;50.860;19.226;2023-05-16T01:28:43;97999.97;;;8.99;93.99
58018;BME280;43810;50.860;19.226;2023-05-16T01:31:10;97999.00;;;9.04;94.20
58018;BME280;43810;50.860;19.226;2023-05-16T01:33:36;97999.78;;;9.04;94.16
58018;BME280;43810;50.860;19.226;2023-05-16T01:39:32;97999.13;;;8.95;93.89
58018;BME280;43810;50.860;19.226;2023-05-16T01:44:43;98000.75;;;8.87;94.17
58018;BME280;43810;50.860;19.226;2023-05-16T01:47:15;98010.03;;;8.81;94.17
58018;BME280;43810;50.860;19.226;2023-05-16T01:50:19;98004.84;;;8.73;94.45
58018;BME280;43810;50.860;19.226;2023-05-16T01:55:51;98015.53;;;8.76;94.68
58018;BME280;43810;50.860;19.226;2023-05-16T01:58:22;98020.03;;;8.76;94.30
58018;BME280;43810;50.860;19.226;2023-05-16T02:00:52;98015.09;;;8.86;94.19
58018;BME280;43810;50.860;19.226;2023-05-16T02:03:18;98030.13;;;8.82;94.22
58018;BME280;43810;50.860;19.226;2023-05-16T02:05:43;98010.56;;;8.87;94.21
58018;BME280;43810;50.860;19.226;2023-05-16T02:08:10;98012.44;;;8.86;94.15
58018;BME280;43810;50.860;19.226;2023-05-16T02:10:36;98015.41;;;8.85;94.13
58018;BME280;43810;50.860;19.226;2023-05-16T02:13:01;98010.81;;;8.82;94.28
58018;BME280;43810;50.860;19.226;2023-05-16T02:15:27;98011.00;;;8.77;94.15
58018;BME280;43810;50.860;19.226;2023-05-16T02:17:53;98008.59;;;8.84;94.19
58018;BME280;43810;50.860;19.226;2023-05-16T02:20:19;98003.63;;;8.82;94.14
58018;BME280;43810;50.860;19.226;2023-05-16T02:22:45;97996.97;;;8.76;93.98
58018;BME280;43810;50.860;19.226;2023-05-16T02:25:13;98002.72;;;8.78;94.13
58018;BME280;43810;50.860;19.226;2023-05-16T02:27:39;98013.53;;;8.73;94.26
58018;BME280;43810;50.860;19.226;2023-05-16T02:30:06;98011.66;;;8.74;94.20
58018;BME280;43810;50.860;19.226;2023-05-16T02:32:32;98010.34;;;8.80;94.22
58018;BME280;43810;50.860;19.226;2023-05-16T02:34:58;98017.41;;;8.76;93.79
58018;BME280;43810;50.860;19.226;2023-05-16T02:37:24;98011.00;;;8.77;93.64
58018;BME280;43810;50.860;19.226;2023-05-16T02:39:50;98015.63;;;8.68;93.85
58018;BME280;43810;50.860;19.226;2023-05-16T02:42:16;98014.31;;;8.74;94.27
58018;BME280;43810;50.860;19.226;2023-05-16T02:44:42;98008.69;;;8.75;94.29
58018;BME280;43810;50.860;19.226;2023-05-16T02:47:08;98020.94;;;8.80;94.55
58018;BME280;43810;50.860;19.226;2023-05-16T02:49:33;98010.34;;;8.80;94.45
58018;BME280;43810;50.860;19.226;2023-05-16T02:51:59;98027.91;;;8.84;94.20
58018;BME280;43810;50.860;19.226;2023-05-16T02:54:25;98015.41;;;8.85;94.30
58018;BME280;43810;50.860;19.226;2023-05-16T02:56:51;98016.63;;;8.87;94.10
58018;BME280;43810;50.860;19.226;2023-05-16T02:59:17;98018.44;;;8.95;93.92
58018;BME280;43810;50.860;19.226;2023-05-16T03:01:43;98016.09;;;8.94;93.99
58018;BME280;43810;50.860;19.226;2023-05-16T03:04:08;98020.97;;;8.92;93.88
58018;BME280;43810;50.860;19.226;2023-05-16T03:06:35;98021.94;;;8.87;94.17
58018;BME280;43810;50.860;19.226;2023-05-16T03:09:00;98028.78;;;8.88;94.58
58018;BME280;43810;50.860;19.226;2023-05-16T03:11:26;98021.94;;;8.99;94.39
58018;BME280;43810;50.860;19.226;2023-05-16T03:13:53;98021.16;;;8.99;94.19
58018;BME280;43810;50.860;19.226;2023-05-16T03:16:19;98025.50;;;9.04;93.98
58018;BME280;43810;50.860;19.226;2023-05-16T03:18:46;98028.91;;;9.04;93.90
58018;BME280;43810;50.860;19.226;2023-05-16T03:21:12;98029.13;;;9.11;93.98
58018;BME280;43810;50.860;19.226;2023-05-16T03:23:39;98032.44;;;9.20;93.54
58018;BME280;43810;50.860;19.226;2023-05-16T03:26:05;98028.91;;;9.16;93.52
58018;BME280;43810;50.860;19.226;2023-05-16T03:28:30;98037.31;;;9.18;93.39
58018;BME280;43810;50.860;19.226;2023-05-16T03:30:57;98048.13;;;9.25;93.78
58018;BME280;43810;50.860;19.226;2023-05-16T03:33:23;98049.47;;;9.31;93.49
58018;BME280;43810;50.860;19.226;2023-05-16T03:35:49;98051.91;;;9.37;93.39
58018;BME280;43810;50.860;19.226;2023-05-16T03:38:15;98052.34;;;9.39;93.30
58018;BME280;43810;50.860;19.226;2023-05-16T03:40:41;98052.13;;;9.44;93.41
58018;BME280;43810;50.860;19.226;2023-05-16T03:43:07;98048.34;;;9.45;93.37
58018;BME280;43810;50.860;19.226;2023-05-16T03:45:33;98044.38;;;9.51;93.14
58018;BME280;43810;50.860;19.226;2023-05-16T03:47:59;98051.25;;;9.52;93.10
58018;BME280;43810;50.860;19.226;2023-05-16T03:50:25;98049.44;;;9.56;93.02
58018;BME280;43810;50.860;19.226;2023-05-16T03:52:51;98049.44;;;9.56;93.10
58018;BME280;43810;50.860;19.226;2023-05-16T03:55:19;98052.53;;;9.70;93.43
58018;BME280;43810;50.860;19.226;2023-05-16T03:57:45;98056.25;;;9.93;93.38
58018;BME280;43810;50.860;19.226;2023-05-16T04:00:12;98056.84;;;10.15;92.56
58018;BME280;43810;50.860;19.226;2023-05-16T04:02:39;98062.53;;;10.29;92.29
58018;BME280;43810;50.860;19.226;2023-05-16T04:05:07;98055.34;;;10.57;91.90
58018;BME280;43810;50.860;19.226;2023-05-16T04:07:33;98062.31;;;10.77;91.42
58018;BME280;43810;50.860;19.226;2023-05-16T04:09:59;98064.38;;;11.00;90.72
58018;BME280;43810;50.860;19.226;2023-05-16T04:12:24;98077.94;;;11.10;89.96
58018;BME280;43810;50.860;19.226;2023-05-16T04:14:51;98077.25;;;11.29;88.88
58018;BME280;43810;50.860;19.226;2023-05-16T04:17:16;98079.72;;;11.53;87.70
58018;BME280;43810;50.860;19.226;2023-05-16T04:19:42;98074.91;;;11.59;86.28
58018;BME280;43810;50.860;19.226;2023-05-16T04:22:08;98078.94;;;11.69;86.06
58018;BME280;43810;50.860;19.226;2023-05-16T04:24:34;98077.16;;;11.92;84.53
58018;BME280;43810;50.860;19.226;2023-05-16T04:26:59;98085.84;;;12.08;84.09
58018;BME280;43810;50.860;19.226;2023-05-16T04:29:25;98085.13;;;12.11;83.59
58018;BME280;43810;50.860;19.226;2023-05-16T04:31:51;98084.66;;;12.25;82.05
58018;BME280;43810;50.860;19.226;2023-05-16T04:34:17;98087.88;;;12.34;82.97
58018;BME280;43810;50.860;19.226;2023-05-16T04:36:43;98095.53;;;12.36;83.38
58018;BME280;43810;50.860;19.226;2023-05-16T04:39:09;98074.91;;;12.52;83.09
58018;BME280;43810;50.860;19.226;2023-05-16T04:41:34;98079.19;;;12.76;81.59
58018;BME280;43810;50.860;19.226;2023-05-16T04:44:03;98070.28;;;12.91;81.27
58018;BME280;43810;50.860;19.226;2023-05-16T04:46:29;98082.63;;;13.22;80.24
58018;BME280;43810;50.860;19.226;2023-05-16T04:48:56;98091.09;;;13.27;79.57
58018;BME280;43810;50.860;19.226;2023-05-16T04:51:22;98094.34;;;13.40;79.19
58018;BME280;43810;50.860;19.226;2023-05-16T04:53:48;98095.69;;;13.53;78.48
58018;BME280;43810;50.860;19.226;2023-05-16T04:56:13;98090.59;;;13.71;78.18
58018;BME280;43810;50.860;19.226;2023-05-16T04:58:39;98097.59;;;13.79;76.77
58018;BME280;43810;50.860;19.226;2023-05-16T05:01:05;98105.91;;;14.00;76.83
58018;BME280;43810;50.860;19.226;2023-05-16T05:03:31;98110.34;;;14.19;76.41
58018;BME280;43810;50.860;19.226;2023-05-16T05:05:57;98111.66;;;14.32;75.90
58018;BME280;43810;50.860;19.226;2023-05-16T05:08:22;98107.91;;;14.37;75.64
58018;BME280;43810;50.860;19.226;2023-05-16T05:10:48;98101.06;;;14.39;74.49
58018;BME280;43810;50.860;19.226;2023-05-16T05:13:14;98111.13;;;14.53;75.23
58018;BME280;43810;50.860;19.226;2023-05-16T05:15:40;98111.66;;;14.66;73.93
58018;BME280;43810;50.860;19.226;2023-05-16T05:18:06;98124.06;;;14.85;74.63
58018;BME280;43810;50.860;19.226;2023-05-16T05:20:32;98118.56;;;15.04;73.70
58018;BME280;43810;50.860;19.226;2023-05-16T05:22:58;98121.69;;;15.13;74.53
58018;BME280;43810;50.860;19.226;2023-05-16T05:25:25;98128.41;;;15.37;72.78
58018;BME280;43810;50.860;19.226;2023-05-16T05:27:51;98130.09;;;15.56;71.23
58018;BME280;43810;50.860;19.226;2023-05-16T05:30:16;98143.47;;;15.52;71.22
58018;BME280;43810;50.860;19.226;2023-05-16T05:32:42;98141.25;;;15.61;71.27
58018;BME280;43810;50.860;19.226;2023-05-16T05:35:08;98139.38;;;15.69;70.72
58018;BME280;43810;50.860;19.226;2023-05-16T05:37:34;98138.69;;;15.75;71.11
58018;BME280;43810;50.860;19.226;2023-05-16T05:40:00;98144.84;;;15.83;71.10
58018;BME280;43810;50.860;19.226;2023-05-16T05:42:27;98151.91;;;16.12;70.40
58018;BME280;43810;50.860;19.226;2023-05-16T05:44:53;98147.38;;;16.27;68.64
58018;BME280;43810;50.860;19.226;2023-05-16T05:47:19;98151.63;;;16.35;69.00
58018;BME280;43810;50.860;19.226;2023-05-16T05:49:47;98153.31;;;16.61;68.22
58018;BME280;43810;50.860;19.226;2023-05-16T05:52:13;98150.63;;;16.58;68.22
58018;BME280;43810;50.860;19.226;2023-05-16T05:54:38;98150.31;;;16.77;68.41
58018;BME280;43810;50.860;19.226;2023-05-16T05:57:04;98155.31;;;16.96;67.56
58018;BME280;43810;50.860;19.226;2023-05-16T05:59:30;98168.81;;;17.28;67.42
58018;BME280;43810;50.860;19.226;2023-05-16T06:01:56;98163.06;;;17.40;66.82
58018;BME280;43810;50.860;19.226;2023-05-16T06:04:22;98166.91;;;17.57;65.47
58018;BME280;43810;50.860;19.226;2023-05-16T06:06:48;98167.31;;;17.59;65.42
58018;BME280;43810;50.860;19.226;2023-05-16T06:09:14;98165.00;;;17.54;65.51
58018;BME280;43810;50.860;19.226;2023-05-16T06:11:40;98172.66;;;17.55;65.17
58018;BME280;43810;50.860;19.226;2023-05-16T06:14:06;98176.50;;;17.37;65.12
58018;BME280;43810;50.860;19.226;2023-05-16T06:16:32;98171.13;;;17.33;64.23
58018;BME280;43810;50.860;19.226;2023-05-16T06:18:58;98173.44;;;17.38;64.17
58018;BME280;43810;50.860;19.226;2023-05-16T06:21:24;98172.25;;;17.18;64.25
58018;BME280;43810;50.860;19.226;2023-05-16T06:23:50;98171.84;;;17.16;65.66
58018;BME280;43810;50.860;19.226;2023-05-16T06:26:16;98188.75;;;17.23;66.37
58018;BME280;43810;50.860;19.226;2023-05-16T06:28:41;98176.09;;;17.20;66.25
58018;BME280;43810;50.860;19.226;2023-05-16T06:31:07;98186.41;;;17.01;66.67
58018;BME280;43810;50.860;19.226;2023-05-16T06:33:34;98179.41;;;16.75;66.61
58018;BME280;43810;50.860;19.226;2023-05-16T06:36:00;98182.09;;;16.68;67.52
58018;BME280;43810;50.860;19.226;2023-05-16T06:38:25;98174.84;;;16.86;68.58
58018;BME280;43810;50.860;19.226;2023-05-16T06:40:51;98170.31;;;17.11;66.37
58018;BME280;43810;50.860;19.226;2023-05-16T06:43:17;98172.63;;;17.16;66.66
58018;BME280;43810;50.860;19.226;2023-05-16T06:45:46;98159.97;;;17.27;65.94
58018;BME280;43810;50.860;19.226;2023-05-16T06:48:13;98171.91;;;17.37;66.30
58018;BME280;43810;50.860;19.226;2023-05-16T06:50:46;98173.44;;;17.35;65.47
58018;BME280;43810;50.860;19.226;2023-05-16T06:53:11;98169.97;;;17.45;67.13
58018;BME280;43810;50.860;19.226;2023-05-16T06:55:38;98168.47;;;17.58;64.72
58018;BME280;43810;50.860;19.226;2023-05-16T06:58:03;98180.75;;;17.70;65.47
58018;BME280;43810;50.860;19.226;2023-05-16T07:00:29;98192.28;;;17.81;66.57
58018;BME280;43810;50.860;19.226;2023-05-16T07:02:55;98199.16;;;17.99;63.97
58018;BME280;43810;50.860;19.226;2023-05-16T07:05:21;98204.91;;;18.09;64.17
58018;BME280;43810;50.860;19.226;2023-05-16T07:07:47;98201.03;;;18.20;62.82
58018;BME280;43810;50.860;19.226;2023-05-16T07:10:14;98201.44;;;18.29;64.94
58018;BME280;43810;50.860;19.226;2023-05-16T07:12:41;98209.53;;;18.19;60.76
58018;BME280;43810;50.860;19.226;2023-05-16T07:15:07;98207.22;;;17.99;64.42
58018;BME280;43810;50.860;19.226;2023-05-16T07:17:33;98205.69;;;18.06;63.70
58018;BME280;43810;50.860;19.226;2023-05-16T07:20:00;98194.56;;;18.00;64.67
58018;BME280;43810;50.860;19.226;2023-05-16T07:22:25;98187.63;;;18.13;63.34
58018;BME280;43810;50.860;19.226;2023-05-16T07:24:51;98186.06;;;18.19;65.90
58018;BME280;43810;50.860;19.226;2023-05-16T07:27:21;98181.81;;;18.32;62.75
58018;BME280;43810;50.860;19.226;2023-05-16T07:29:47;98179.13;;;18.32;61.43
58018;BME280;43810;50.860;19.226;2023-05-16T07:32:13;98174.13;;;18.42;63.46
58018;BME280;43810;50.860;19.226;2023-05-16T07:34:39;98177.94;;;18.44;64.54
58018;BME280;43810;50.860;19.226;2023-05-16T07:37:05;98181.72;;;18.75;58.93
58018;BME280;43810;50.860;19.226;2023-05-16T07:39:38;98179.41;;;18.70;61.78
58018;BME280;43810;50.860;19.226;2023-05-16T07:42:06;98175.56;;;18.75;60.57
58018;BME280;43810;50.860;19.226;2023-05-16T07:44:33;98189.75;;;18.82;62.02
58018;BME280;43810;50.860;19.226;2023-05-16T07:46:59;98184.34;;;18.82;59.76
58018;BME280;43810;50.860;19.226;2023-05-16T07:49:25;98187.00;;;18.93;61.42
58018;BME280;43810;50.860;19.226;2023-05-16T07:51:58;98195.50;;;18.88;62.38
58018;BME280;43810;50.860;19.226;2023-05-16T07:54:24;98195.56;;;18.73;62.77
58018;BME280;43810;50.860;19.226;2023-05-16T07:56:50;98198.91;;;18.92;60.36
58018;BME280;43810;50.860;19.226;2023-05-16T07:59:16;98192.63;;;19.16;59.67
58018;BME280;43810;50.860;19.226;2023-05-16T08:01:41;98198.63;;;19.45;60.24
58018;BME280;43810;50.860;19.226;2023-05-16T08:04:07;98198.16;;;19.57;59.02
58018;BME280;43810;50.860;19.226;2023-05-16T08:06:33;98213.41;;;19.78;59.35
58018;BME280;43810;50.860;19.226;2023-05-16T08:08:59;98214.09;;;19.89;57.49
58018;BME280;43810;50.860;19.226;2023-05-16T08:11:24;98208.22;;;20.01;55.25
58018;BME280;43810;50.860;19.226;2023-05-16T08:13:51;98208.88;;;20.12;55.89
58018;BME280;43810;50.860;19.226;2023-05-16T08:16:17;98214.25;;;20.12;54.85
58018;BME280;43810;50.860;19.226;2023-05-16T08:18:43;98225.53;;;20.00;58.47
58018;BME280;43810;50.860;19.226;2023-05-16T08:21:08;98232.38;;;20.12;55.94
58018;BME280;43810;50.860;19.226;2023-05-16T08:23:35;98231.88;;;20.24;56.28
58018;BME280;43810;50.860;19.226;2023-05-16T08:26:01;98244.16;;;20.70;56.06
58018;BME280;43810;50.860;19.226;2023-05-16T08:28:28;98253.53;;;20.92;52.05
58018;BME280;43810;50.860;19.226;2023-05-16T08:30:54;98258.94;;;21.22;52.76
58018;BME280;43810;50.860;19.226;2023-05-16T08:33:20;98258.91;;;21.26;52.89
58018;BME280;43810;50.860;19.226;2023-05-16T08:35:45;98269.59;;;21.33;52.37
58018;BME280;43810;50.860;19.226;2023-05-16T08:38:13;98271.94;;;21.31;54.17
58018;BME280;43810;50.860;19.226;2023-05-16T08:40:39;98276.09;;;21.66;51.07
58018;BME280;43810;50.860;19.226;2023-05-16T08:43:06;98274.78;;;21.78;51.31
58018;BME280;43810;50.860;19.226;2023-05-16T08:45:32;98272.06;;;21.78;53.85
58018;BME280;43810;50.860;19.226;2023-05-16T08:48:00;98274.31;;;21.83;48.37
58018;BME280;43810;50.860;19.226;2023-05-16T08:50:29;98274.00;;;21.77;49.11
58018;BME280;43810;50.860;19.226;2023-05-16T08:52:56;98267.44;;;22.02;48.76
58018;BME280;43810;50.860;19.226;2023-05-16T08:55:23;98272.75;;;22.09;53.30
58018;BME280;43810;50.860;19.226;2023-05-16T08:57:51;98276.16;;;22.13;49.19
58018;BME280;43810;50.860;19.226;2023-05-16T09:00:17;98290.56;;;22.33;48.90
58018;BME280;43810;50.860;19.226;2023-05-16T09:02:44;98301.06;;;22.51;50.23
58018;BME280;43810;50.860;19.226;2023-05-16T09:05:12;98304.06;;;21.83;51.11
58018;BME280;43810;50.860;19.226;2023-05-16T09:07:39;98311.41;;;22.09;48.39
58018;BME280;43810;50.860;19.226;2023-05-16T09:10:05;98293.88;;;22.17;49.85
58018;BME280;43810;50.860;19.226;2023-05-16T09:12:35;98291.91;;;22.45;47.34
58018;BME280;43810;50.860;19.226;2023-05-16T09:15:02;98295.69;;;22.90;47.34
58018;BME280;43810;50.860;19.226;2023-05-16T09:17:43;98279.22;;;23.21;46.75
58018;BME280;43810;50.860;19.226;2023-05-16T09:20:17;98283.34;;;23.45;46.57
58018;BME280;43810;50.860;19.226;2023-05-16T09:22:54;98277.41;;;23.50;44.66
58018;BME280;43810;50.860;19.226;2023-05-16T09:25:22;98279.56;;;23.23;46.02
58018;BME280;43810;50.860;19.226;2023-05-16T09:27:53;98265.81;;;22.94;45.99
58018;BME280;43810;50.860;19.226;2023-05-16T09:30:23;98264.78;;;22.68;48.47
58018;BME280;43810;50.860;19.226;2023-05-16T09:32:52;98269.97;;;22.59;44.26
58018;BME280;43810;50.860;19.226;2023-05-16T09:35:22;98265.53;;;22.25;45.84
58018;BME280;43810;50.860;19.226;2023-05-16T09:37:50;98276.31;;;22.02;48.90
58018;BME280;43810;50.860;19.226;2023-05-16T09:40:24;98265.63;;;21.95;47.37
58018;BME280;43810;50.860;19.226;2023-05-16T09:43:03;98262.03;;;21.78;50.21
58018;BME280;43810;50.860;19.226;2023-05-16T09:45:31;98265.50;;;22.49;47.79
58018;BME280;43810;50.860;19.226;2023-05-16T09:48:03;98265.91;;;23.10;47.95
58018;BME280;43810;50.860;19.226;2023-05-16T09:50:31;98269.63;;;23.16;47.17
58018;BME280;43810;50.860;19.226;2023-05-16T09:52:58;98272.41;;;22.73;45.11
58018;BME280;43810;50.860;19.226;2023-05-16T09:55:24;98273.84;;;23.01;45.27
58018;BME280;43810;50.860;19.226;2023-05-16T09:57:50;98276.91;;;23.03;45.08
58018;BME280;43810;50.860;19.226;2023-05-16T10:00:16;98274.13;;;22.63;47.78
58018;BME280;43810;50.860;19.226;2023-05-16T10:02:43;98283.28;;;23.13;44.91
58018;BME280;43810;50.860;19.226;2023-05-16T10:05:09;98280.13;;;23.50;44.24
58018;BME280;43810;50.860;19.226;2023-05-16T10:07:36;98290.31;;;23.62;46.21
58018;BME280;43810;50.860;19.226;2023-05-16T10:10:06;98291.72;;;23.70;42.28
58018;BME280;43810;50.860;19.226;2023-05-16T10:12:33;98298.38;;;23.30;45.30
58018;BME280;43810;50.860;19.226;2023-05-16T10:15:04;98286.25;;;23.54;46.15
58018;BME280;43810;50.860;19.226;2023-05-16T10:17:35;98294.63;;;23.44;43.78
58018;BME280;43810;50.860;19.226;2023-05-16T10:20:06;98290.66;;;23.64;46.78
58018;BME280;43810;50.860;19.226;2023-05-16T10:22:41;98288.91;;;23.74;43.79
58018;BME280;43810;50.860;19.226;2023-05-16T10:25:25;98287.59;;;23.46;44.41
58018;BME280;43810;50.860;19.226;2023-05-16T10:27:54;98288.81;;;22.66;43.93
58018;BME280;43810;50.860;19.226;2023-05-16T10:30:20;98284.09;;;23.10;47.35
58018;BME280;43810;50.860;19.226;2023-05-16T10:32:47;98282.53;;;23.48;45.15
58018;BME280;43810;50.860;19.226;2023-05-16T10:35:14;98286.66;;;23.53;45.90
58018;BME280;43810;50.860;19.226;2023-05-16T10:37:41;98283.59;;;23.87;45.82
58018;BME280;43810;50.860;19.226;2023-05-16T10:40:08;98278.78;;;23.94;44.88
58018;BME280;43810;50.860;19.226;2023-05-16T10:42:34;98277.66;;;24.08;46.39
58018;BME280;43810;50.860;19.226;2023-05-16T10:45:17;98271.22;;;24.02;43.30
58018;BME280;43810;50.860;19.226;2023-05-16T10:47:53;98277.34;;;23.37;45.94
58018;BME280;43810;50.860;19.226;2023-05-16T10:53:15;98271.94;;;23.54;42.81
58018;BME280;43810;50.860;19.226;2023-05-16T10:55:49;98273.63;;;23.64;42.00
58018;BME280;43810;50.860;19.226;2023-05-16T10:58:43;98263.56;;;23.64;46.39
58018;BME280;43810;50.860;19.226;2023-05-16T11:01:27;98267.06;;;23.81;45.10
58018;BME280;43810;50.860;19.226;2023-05-16T11:06:30;98279.41;;;24.31;41.77
58018;BME280;43810;50.860;19.226;2023-05-16T11:17:20;98275.22;;;24.42;39.48
58018;BME280;43810;50.860;19.226;2023-05-16T11:19:50;98273.25;;;24.30;43.26
58018;BME280;43810;50.860;19.226;2023-05-16T11:27:42;98276.72;;;23.98;41.43
58018;BME280;43810;50.860;19.226;2023-05-16T11:32:36;98278.59;;;23.33;44.36
58018;BME280;43810;50.860;19.226;2023-05-16T11:35:03;98270.53;;;23.29;44.26
58018;BME280;43810;50.860;19.226;2023-05-16T11:37:29;98269.38;;;23.63;44.22
58018;BME280;43810;50.860;19.226;2023-05-16T11:39:59;98263.91;;;23.66;42.30
58018;BME280;43810;50.860;19.226;2023-05-16T11:42:30;98261.72;;;23.06;41.03
58018;BME280;43810;50.860;19.226;2023-05-16T11:45:18;98263.00;;;22.58;45.93
58018;BME280;43810;50.860;19.226;2023-05-16T11:47:47;98263.31;;;22.83;42.85
58018;BME280;43810;50.860;19.226;2023-05-16T11:50:15;98264.06;;;22.84;42.46
58018;BME280;43810;50.860;19.226;2023-05-16T11:52:59;98260.03;;;22.72;41.65
58018;BME280;43810;50.860;19.226;2023-05-16T11:55:27;98247.91;;;23.00;41.52
58018;BME280;43810;50.860;19.226;2023-05-16T11:57:56;98254.72;;;22.88;43.39
58018;BME280;43810;50.860;19.226;2023-05-16T12:00:24;98262.41;;;22.70;44.39
58018;BME280;43810;50.860;19.226;2023-05-16T12:02:58;98272.41;;;22.53;46.07
58018;BME280;43810;50.860;19.226;2023-05-16T12:05:25;98267.69;;;22.57;48.63
58018;BME280;43810;50.860;19.226;2023-05-16T12:07:53;98268.94;;;22.29;46.60
58018;BME280;43810;50.860;19.226;2023-05-16T12:10:19;98270.66;;;22.63;46.84
58018;BME280;43810;50.860;19.226;2023-05-16T12:12:48;98263.03;;;22.78;45.08
58018;BME280;43810;50.860;19.226;2023-05-16T12:15:21;98270.31;;;22.81;43.64
58018;BME280;43810;50.860;19.226;2023-05-16T12:17:47;98266.97;;;22.93;42.96
58018;BME280;43810;50.860;19.226;2023-05-16T12:20:14;98267.03;;;22.50;43.14
58018;BME280;43810;50.860;19.226;2023-05-16T12:22:44;98282.84;;;22.31;42.83
58018;BME280;43810;50.860;19.226;2023-05-16T12:25:32;98278.31;;;21.75;43.97
58018;BME280;43810;50.860;19.226;2023-05-16T12:28:02;98277.66;;;21.90;48.30
58018;BME280;43810;50.860;19.226;2023-05-16T12:30:30;98274.38;;;22.29;44.46
58018;BME280;43810;50.860;19.226;2023-05-16T12:32:57;98274.38;;;22.29;43.02
58018;BME280;43810;50.860;19.226;2023-05-16T12:35:24;98264.56;;;21.89;43.29
58018;BME280;43810;50.860;19.226;2023-05-16T12:37:51;98268.16;;;21.82;42.76
58018;BME280;43810;50.860;19.226;2023-05-16T12:40:17;98267.63;;;21.91;42.95
58018;BME280;43810;50.860;19.226;2023-05-16T12:42:48;98263.72;;;21.69;45.10
58018;BME280;43810;50.860;19.226;2023-05-16T12:45:16;98266.06;;;21.40;47.20
58018;BME280;43810;50.860;19.226;2023-05-16T12:47:42;98270.84;;;21.82;47.00
58018;BME280;43810;50.860;19.226;2023-05-16T12:50:09;98275.31;;;21.92;43.65
58018;BME280;43810;50.860;19.226;2023-05-16T12:52:37;98275.56;;;22.02;47.95
58018;BME280;43810;50.860;19.226;2023-05-16T12:55:03;98264.44;;;21.73;46.67
58018;BME280;43810;50.860;19.226;2023-05-16T12:57:29;98264.91;;;21.91;45.84
58018;BME280;43810;50.860;19.226;2023-05-16T12:59:55;98258.19;;;21.52;48.01
58018;BME280;43810;50.860;19.226;2023-05-16T13:02:21;98257.50;;;21.72;43.69
58018;BME280;43810;50.860;19.226;2023-05-16T13:04:47;98262.66;;;21.36;43.61
58018;BME280;43810;50.860;19.226;2023-05-16T13:07:13;98260.56;;;21.47;45.21
58018;BME280;43810;50.860;19.226;2023-05-16T13:09:38;98247.56;;;21.65;45.63
58018;BME280;43810;50.860;19.226;2023-05-16T13:12:06;98246.84;;;21.61;46.04
58018;BME280;43810;50.860;19.226;2023-05-16T13:14:32;98251.88;;;21.86;48.52
58018;BME280;43810;50.860;19.226;2023-05-16T13:16:57;98248.19;;;22.00;44.33
58018;BME280;43810;50.860;19.226;2023-05-16T13:19:23;98240.34;;;21.55;44.15
58018;BME280;43810;50.860;19.226;2023-05-16T13:21:49;98251.56;;;21.27;44.20
58018;BME280;43810;50.860;19.226;2023-05-16T13:24:15;98256.84;;;21.07;46.92
58018;BME280;43810;50.860;19.226;2023-05-16T13:26:41;98247.97;;;21.33;46.18
58018;BME280;43810;50.860;19.226;2023-05-16T13:29:06;98250.06;;;21.22;47.15
58018;BME280;43810;50.860;19.226;2023-05-16T13:31:34;98255.09;;;21.20;46.90
58018;BME280;43810;50.860;19.226;2023-05-16T13:34:00;98250.75;;;20.99;45.33